Time;durP1;ratioP1;P1;durP2;ratioP2;P2;SDS_P1;SDS_P2;PMS_P1;PMS_P2;Temp;Humidity;BMP_temperature;BMP_pressure;BME280_temperature;BME280_humidity;BME280_pressure;Samples;Min_cycle;Max_cycle;Signal;HPM_P1;HPM_P2
2022/06/14 00:00:53;;;;;;;0.30;0.30;;;15.90;99.90;;;;;;4974634;28;20172;-83
2022/06/14 00:02:26;;;;;;;0.47;0.47;;;15.70;99.90;;;;;;4991553;28;20188;-83
2022/06/14 00:04:52;;;;;;;0.10;0.10;;;15.80;99.90;;;;;;4990754;28;20877;-83
2022/06/14 00:07:18;;;;;;;0.10;0.10;;;15.80;99.90;;;;;;4991990;28;20210;-83
2022/06/14 00:09:44;;;;;;;0.10;0.10;;;15.70;99.90;;;;;;4972685;28;20286;-82
2022/06/14 00:12:11;;;;;;;0.20;0.20;;;15.60;99.90;;;;;;4991229;28;20180;-82
2022/06/14 00:14:36;;;;;;;0.50;0.43;;;15.50;99.90;;;;;;4990789;28;20187;-82
2022/06/14 00:17:02;;;;;;;0.20;0.20;;;15.60;99.90;;;;;;4993150;28;20203;-82
2022/06/14 00:19:27;;;;;;;0.30;0.30;;;15.50;99.90;;;;;;4992959;28;20230;-82
2022/06/14 00:21:53;;;;;;;0.30;0.30;;;15.40;99.90;;;;;;4994608;28;20223;-82
2022/06/14 00:24:18;;;;;;;0.10;0.10;;;15.40;99.90;;;;;;4994129;28;20187;-83
2022/06/14 00:26:44;;;;;;;0.20;0.20;;;15.30;99.90;;;;;;4977188;28;20222;-82
2022/06/14 00:29:09;;;;;;;0.43;0.30;;;15.10;99.90;;;;;;4994146;28;20257;-82
2022/06/14 00:31:35;;;;;;;2.53;0.30;;;15.10;99.90;;;;;;4977330;28;20262;-83
2022/06/14 00:34:01;;;;;;;0.20;0.20;;;14.90;99.90;;;;;;4995101;28;20547;-82
2022/06/14 00:36:34;;;;;;;9.20;0.53;;;14.90;99.90;;;;;;4977059;28;20716;-82
2022/06/14 00:39:06;;;;;;;0.10;0.10;;;14.90;99.90;;;;;;4993450;28;20197;-83
2022/06/14 00:41:37;;;;;;;0.10;0.10;;;15.00;99.90;;;;;;4994862;28;20245;-82
2022/06/14 00:44:04;;;;;;;0.10;0.10;;;14.90;99.90;;;;;;4993903;28;20248;-82
2022/06/14 00:46:38;;;;;;;1.43;0.40;;;15.00;99.90;;;;;;4994390;28;20714;-82
2022/06/14 00:49:12;;;;;;;0.13;0.13;;;14.80;99.90;;;;;;4993872;28;20187;-82
2022/06/14 00:52:00;;;;;;;0.10;0.10;;;14.90;99.90;;;;;;4974130;28;20191;-83
2022/06/14 00:54:34;;;;;;;0.10;0.10;;;14.90;99.90;;;;;;4992627;28;20662;-84
2022/06/14 00:57:08;;;;;;;0.20;0.10;;;14.90;99.90;;;;;;4992465;28;20221;-82
2022/06/14 00:59:39;;;;;;;0.30;0.23;;;14.70;99.90;;;;;;4976258;28;20303;-83
2022/06/14 01:02:18;;;;;;;0.10;0.10;;;14.60;99.90;;;;;;4992073;28;20253;-84
2022/06/14 01:04:45;;;;;;;0.10;0.10;;;14.60;99.90;;;;;;4974680;28;20203;-82
2022/06/14 01:07:16;;;;;;;0.20;0.20;;;14.60;99.90;;;;;;4993696;28;20246;-82
2022/06/14 01:09:49;;;;;;;0.20;0.20;;;14.60;99.90;;;;;;4992755;28;20227;-84
2022/06/14 01:12:18;;;;;;;0.60;0.40;;;14.60;99.90;;;;;;4993601;28;21268;-82
2022/06/14 01:14:57;;;;;;;1.40;0.60;;;14.60;99.90;;;;;;4992773;28;20222;-82
2022/06/14 01:17:23;;;;;;;0.70;0.70;;;14.60;99.90;;;;;;4975081;28;20250;-82
2022/06/14 01:19:49;;;;;;;0.63;0.40;;;14.40;99.90;;;;;;4990695;28;20188;-84
2022/06/14 01:22:25;;;;;;;0.20;0.20;;;14.30;99.90;;;;;;4974894;28;20234;-83
2022/06/14 01:24:50;;;;;;;0.30;0.30;;;14.20;99.90;;;;;;4972558;28;20272;-82
2022/06/14 01:27:18;;;;;;;0.10;0.10;;;14.10;99.90;;;;;;4973428;28;20195;-82
2022/06/14 01:29:49;;;;;;;0.50;0.30;;;14.00;99.90;;;;;;4991944;28;20209;-83
2022/06/14 01:32:17;;;;;;;0.10;0.10;;;13.80;99.90;;;;;;4991514;28;20187;-82
2022/06/14 01:34:49;;;;;;;0.10;0.10;;;13.70;99.90;;;;;;4991764;28;20190;-83
2022/06/14 01:37:15;;;;;;;0.10;0.10;;;13.80;99.90;;;;;;4990475;28;20230;-82
2022/06/14 01:39:40;;;;;;;0.17;0.17;;;13.90;99.90;;;;;;4973233;28;20217;-82
2022/06/14 01:42:23;;;;;;;0.00;0.00;;;14.00;99.90;;;;;;4992081;28;20189;-84
2022/06/14 01:45:02;;;;;;;0.10;0.10;;;14.00;99.90;;;;;;4973005;28;20277;-82
2022/06/14 01:47:45;;;;;;;0.10;0.10;;;14.00;99.90;;;;;;4989523;28;21058;-83
2022/06/14 01:53:37;;;;;;;0.10;0.10;;;14.10;99.90;;;;;;4960109;28;20230;-83
2022/06/14 01:56:20;;;;;;;0.20;0.20;;;14.20;99.90;;;;;;4972714;28;20738;-82
2022/06/14 01:59:17;;;;;;;0.10;0.10;;;14.10;99.90;;;;;;4972518;28;20209;-83
2022/06/14 02:01:57;;;;;;;0.50;0.40;;;14.10;99.90;;;;;;4991329;28;20249;-82
2022/06/14 02:04:41;;;;;;;0.10;0.10;;;14.10;99.90;;;;;;4972377;28;20277;-83
2022/06/14 02:07:13;;;;;;;0.40;0.40;;;14.10;99.90;;;;;;4989938;28;20211;-82
2022/06/14 02:09:50;;;;;;;0.10;0.10;;;14.20;99.90;;;;;;4990448;28;20190;-83
2022/06/14 02:12:20;;;;;;;0.10;0.10;;;14.20;99.90;;;;;;4972816;28;20191;-83
2022/06/14 02:15:07;;;;;;;0.10;0.10;;;14.20;99.90;;;;;;4989793;28;20211;-83
2022/06/14 02:17:41;;;;;;;0.10;0.10;;;14.20;99.90;;;;;;4972231;28;20583;-82
2022/06/14 02:20:17;;;;;;;0.30;0.30;;;14.20;99.90;;;;;;4989097;28;20621;-82
2022/06/14 02:22:49;;;;;;;0.13;0.13;;;14.00;99.90;;;;;;4989781;28;20194;-83
2022/06/14 02:25:21;;;;;;;0.23;0.20;;;13.80;99.90;;;;;;4973167;28;20210;-82
2022/06/14 02:27:49;;;;;;;0.10;0.10;;;13.80;99.90;;;;;;4971439;28;20195;-83
2022/06/14 02:30:23;;;;;;;0.10;0.10;;;13.80;99.90;;;;;;4986875;28;20194;-83
2022/06/14 02:32:56;;;;;;;0.17;0.17;;;13.80;99.90;;;;;;4972233;28;20199;-82
2022/06/14 02:35:36;;;;;;;0.20;0.20;;;13.70;99.90;;;;;;4989274;28;20211;-82
2022/06/14 02:38:08;;;;;;;0.07;0.07;;;13.60;99.90;;;;;;4989977;28;20213;-82
2022/06/14 02:40:40;;;;;;;0.03;0.03;;;13.80;99.90;;;;;;4987414;28;20275;-83
2022/06/14 02:43:19;;;;;;;0.20;0.20;;;13.80;99.90;;;;;;4989704;28;20189;-83
2022/06/14 02:45:59;;;;;;;0.20;0.20;;;13.90;99.90;;;;;;4971404;28;20588;-82
2022/06/14 02:48:39;;;;;;;0.20;0.20;;;13.70;99.90;;;;;;4989758;28;20214;-81
2022/06/14 02:51:29;;;;;;;0.10;0.10;;;13.60;99.90;;;;;;4989921;28;20202;-83
2022/06/14 02:54:08;;;;;;;0.30;0.30;;;13.20;99.90;;;;;;4970733;28;20210;-82
2022/06/14 02:56:47;;;;;;;0.17;0.17;;;13.10;99.90;;;;;;4970760;28;22357;-82
2022/06/14 02:59:37;;;;;;;0.27;0.27;;;12.80;99.90;;;;;;4989892;28;20266;-83
2022/06/14 03:02:13;;;;;;;0.10;0.10;;;12.60;99.90;;;;;;4971319;28;20184;-82
2022/06/14 03:04:59;;;;;;;0.10;0.10;;;12.50;99.90;;;;;;4989106;28;20724;-84
2022/06/14 03:07:31;;;;;;;0.10;0.10;;;12.50;99.90;;;;;;4986138;28;20355;-83
2022/06/14 03:09:57;;;;;;;0.10;0.10;;;12.50;99.90;;;;;;4970508;28;20244;-82
2022/06/14 03:12:34;;;;;;;0.60;0.20;;;12.50;99.90;;;;;;4990205;28;20196;-83
2022/06/14 03:15:35;;;;;;;0.53;0.20;;;12.70;99.90;;;;;;4988397;28;20220;-83
2022/06/14 03:18:30;;;;;;;0.20;0.20;;;12.90;99.90;;;;;;4944564;28;20249;-82
2022/06/14 03:21:04;;;;;;;0.10;0.10;;;13.20;99.90;;;;;;4962080;28;20214;-82
2022/06/14 03:23:46;;;;;;;0.23;0.23;;;13.30;99.90;;;;;;4968555;28;20190;-82
2022/06/14 03:26:24;;;;;;;0.10;0.10;;;13.40;99.90;;;;;;4986745;28;20213;-81
2022/06/14 03:28:58;;;;;;;0.10;0.10;;;13.40;99.90;;;;;;4968987;28;20198;-82
2022/06/14 03:31:34;;;;;;;0.10;0.10;;;13.50;99.90;;;;;;4969681;28;20182;-82
2022/06/14 03:34:29;;;;;;;0.10;0.10;;;13.60;99.90;;;;;;4964973;28;20187;-83
2022/06/14 03:36:56;;;;;;;0.13;0.13;;;13.80;99.90;;;;;;4987649;28;20210;-82
2022/06/14 03:39:29;;;;;;;0.23;0.23;;;14.30;99.90;;;;;;4987933;28;20201;-83
2022/06/14 03:41:55;;;;;;;0.20;0.20;;;14.40;99.90;;;;;;4985588;28;20192;-83
2022/06/14 03:44:23;;;;;;;0.10;0.10;;;15.20;99.90;;;;;;4987804;28;20184;-84
2022/06/14 03:47:15;;;;;;;0.10;0.10;;;16.30;99.90;;;;;;4988041;28;20210;-83
2022/06/14 03:49:52;;;;;;;0.20;0.20;;;17.40;99.90;;;;;;4988279;28;20709;-83
2022/06/14 03:52:27;;;;;;;0.13;0.13;;;18.20;99.90;;;;;;4989995;28;20245;-83
2022/06/14 03:55:17;;;;;;;0.10;0.10;;;19.00;99.90;;;;;;4990242;28;20289;-83
2022/06/14 03:57:48;;;;;;;0.30;0.30;;;19.90;99.90;;;;;;4990368;28;20196;-83
2022/06/14 04:00:27;;;;;;;0.37;0.37;;;20.60;99.90;;;;;;4973904;28;20180;-83
2022/06/14 04:02:56;;;;;;;0.10;0.10;;;21.20;99.90;;;;;;4973305;28;20187;-84
2022/06/14 04:05:49;;;;;;;0.20;0.20;;;21.70;99.90;;;;;;4990886;28;20289;-84
2022/06/14 04:08:36;;;;;;;0.10;0.10;;;22.30;99.90;;;;;;4973457;28;20214;-83
2022/06/14 04:11:37;;;;;;;0.30;0.30;;;22.60;99.90;;;;;;4991142;28;20180;-82
2022/06/14 04:14:31;;;;;;;0.20;0.20;;;22.40;99.90;;;;;;4959211;28;20196;-83
2022/06/14 04:17:09;;;;;;;0.10;0.10;;;22.20;99.90;;;;;;4959631;28;20708;-83
2022/06/14 04:19:50;;;;;;;0.10;0.10;;;22.70;99.90;;;;;;4972722;28;20179;-83
2022/06/14 04:22:41;;;;;;;0.40;0.40;;;22.70;99.90;;;;;;4990706;28;20186;-83
2022/06/14 04:25:19;;;;;;;0.57;0.20;;;22.60;99.90;;;;;;4973068;28;20203;-82
2022/06/14 04:27:56;;;;;;;0.23;0.23;;;22.10;99.90;;;;;;4990779;28;20187;-84
2022/06/14 04:30:40;;;;;;;1.07;0.60;;;21.10;99.90;;;;;;4990260;28;20262;-83
2022/06/14 04:33:39;;;;;;;1.23;0.40;;;20.40;99.90;;;;;;4972727;28;20266;-82
2022/06/14 04:36:11;;;;;;;0.20;0.20;;;19.70;99.90;;;;;;4990854;28;20633;-84
2022/06/14 04:38:44;;;;;;;0.10;0.10;;;19.20;99.90;;;;;;4972151;28;20184;-83
2022/06/14 04:41:33;;;;;;;0.30;0.30;;;18.90;99.90;;;;;;4990042;28;20179;-83
2022/06/14 04:44:31;;;;;;;0.30;0.30;;;18.70;99.90;;;;;;4990487;28;20184;-84
2022/06/14 04:47:02;;;;;;;1.93;0.90;;;18.40;99.90;;;;;;4990966;28;20203;-82
2022/06/14 04:49:49;;;;;;;0.10;0.10;;;18.20;99.90;;;;;;4974113;28;20187;-82
2022/06/14 04:52:23;;;;;;;0.10;0.10;;;17.90;99.90;;;;;;4989044;28;21204;-82
2022/06/14 04:55:28;;;;;;;0.20;0.20;;;17.80;99.90;;;;;;4970899;28;20278;-83
2022/06/14 04:58:09;;;;;;;0.20;0.20;;;17.50;99.90;;;;;;4949655;28;21298;-84
2022/06/14 05:00:41;;;;;;;0.30;0.30;;;17.30;99.90;;;;;;4989644;28;20709;-83
2022/06/14 05:03:18;;;;;;;0.10;0.10;;;17.20;99.90;;;;;;4970207;28;20223;-83
2022/06/14 05:05:58;;;;;;;0.67;0.30;;;16.90;99.90;;;;;;4988426;28;21220;-83
2022/06/14 05:08:39;;;;;;;0.20;0.20;;;16.80;99.90;;;;;;4972142;28;20323;-83
2022/06/14 05:11:16;;;;;;;0.63;0.37;;;16.80;99.90;;;;;;4973406;28;20188;-81
2022/06/14 05:13:59;;;;;;;0.20;0.20;;;16.80;99.90;;;;;;4989442;28;20190;-80
2022/06/14 05:16:36;;;;;;;0.23;0.23;;;16.70;99.90;;;;;;4971098;28;20218;-80
2022/06/14 05:19:14;;;;;;;0.20;0.20;;;16.80;99.90;;;;;;4970434;28;20175;-80
2022/06/14 05:21:51;;;;;;;0.83;0.20;;;16.60;99.90;;;;;;4985356;28;20184;-81
2022/06/14 05:24:17;;;;;;;0.30;0.30;;;16.70;99.90;;;;;;4986278;28;20269;-81
2022/06/14 05:27:17;;;;;;;0.20;0.20;;;16.70;99.90;;;;;;4986581;28;20224;-84
2022/06/14 05:30:07;;;;;;;0.70;0.70;;;16.80;99.90;;;;;;4962999;28;20203;-85
2022/06/14 05:33:04;;;;;;;0.20;0.20;;;16.80;99.90;;;;;;4968436;28;20233;-85
2022/06/14 05:35:38;;;;;;;0.20;0.20;;;16.90;99.90;;;;;;4985358;28;20208;-85
2022/06/14 05:38:38;;;;;;;2.10;0.60;;;16.90;99.90;;;;;;4969397;28;20203;-85
2022/06/14 05:41:24;;;;;;;0.83;0.40;;;16.20;99.90;;;;;;4969443;28;20194;-85
2022/06/14 05:43:54;;;;;;;0.10;0.10;;;16.40;99.90;;;;;;4969009;28;20628;-84
2022/06/14 05:46:36;;;;;;;0.27;0.27;;;16.70;99.90;;;;;;4987538;28;20270;-85
2022/06/14 05:49:16;;;;;;;0.30;0.20;;;16.80;99.90;;;;;;4968374;28;20179;-85
2022/06/14 05:51:49;;;;;;;0.17;0.17;;;16.60;99.90;;;;;;4968462;28;20183;-85
2022/06/14 05:54:38;;;;;;;0.27;0.27;;;16.80;99.90;;;;;;4986444;28;20245;-85
2022/06/14 05:57:28;;;;;;;0.10;0.10;;;17.00;99.90;;;;;;4983745;28;20720;-85
2022/06/14 06:00:10;;;;;;;0.20;0.20;;;17.30;99.90;;;;;;4986367;28;20191;-85
2022/06/14 06:02:45;;;;;;;0.20;0.20;;;17.50;99.90;;;;;;4966532;28;20215;-85
2022/06/14 06:05:14;;;;;;;0.43;0.40;;;17.60;99.90;;;;;;4968143;28;20494;-85
2022/06/14 06:07:47;;;;;;;0.70;0.40;;;17.40;99.90;;;;;;4968910;28;20192;-86
2022/06/14 06:10:24;;;;;;;0.40;0.20;;;17.40;99.90;;;;;;4983625;28;20338;-84
2022/06/14 06:12:59;;;;;;;0.60;0.60;;;17.70;99.90;;;;;;4986959;28;20183;-85
2022/06/14 06:15:46;;;;;;;0.40;0.40;;;17.50;99.90;;;;;;4968054;28;20211;-86
2022/06/14 06:18:31;;;;;;;0.43;0.43;;;17.30;99.90;;;;;;4967743;28;20234;-85
2022/06/14 06:21:23;;;;;;;0.37;0.37;;;17.50;99.90;;;;;;4968316;28;20545;-85
2022/06/14 06:23:54;;;;;;;0.20;0.20;;;17.70;99.90;;;;;;4980657;28;20210;-85
2022/06/14 06:26:22;;;;;;;0.77;0.77;;;17.60;99.90;;;;;;4967380;28;20215;-85
2022/06/14 06:28:59;;;;;;;0.50;0.50;;;17.50;99.90;;;;;;4983816;28;20198;-85
2022/06/14 06:31:29;;;;;;;0.30;0.30;;;17.70;99.90;;;;;;4985646;28;20616;-80
2022/06/14 06:33:57;;;;;;;0.30;0.30;;;18.00;99.90;;;;;;4987434;28;20191;-81
2022/06/14 06:36:45;;;;;;;0.17;0.17;;;18.40;99.90;;;;;;4987003;28;20223;-81
2022/06/14 06:39:17;;;;;;;0.30;0.30;;;18.20;99.90;;;;;;4984564;28;20231;-81
2022/06/14 06:41:54;;;;;;;0.40;0.40;;;18.00;99.90;;;;;;4968855;28;20187;-81
2022/06/14 06:44:20;;;;;;;0.10;0.10;;;18.40;99.90;;;;;;4968393;28;20263;-80
2022/06/14 06:46:53;;;;;;;0.10;0.10;;;18.70;99.90;;;;;;4985149;28;20282;-80
2022/06/14 06:49:22;;;;;;;0.20;0.20;;;19.00;99.90;;;;;;4986372;28;20579;-81
2022/06/14 06:51:54;;;;;;;0.47;0.47;;;19.10;99.90;;;;;;4986351;28;20184;-81
2022/06/14 06:54:34;;;;;;;0.10;0.10;;;19.10;99.90;;;;;;4982711;28;20188;-81
2022/06/14 06:57:01;;;;;;;0.20;0.20;;;19.20;99.90;;;;;;4986115;28;20222;-81
2022/06/14 06:59:31;;;;;;;0.57;0.43;;;19.60;99.90;;;;;;4967567;28;20188;-83
2022/06/14 07:02:02;;;;;;;0.23;0.23;;;19.60;99.90;;;;;;4984313;28;20261;-83
2022/06/14 07:07:24;;;;;;;0.60;0.30;;;19.70;99.90;;;;;;4979569;28;20307;-84
2022/06/14 07:09:59;;;;;;;2.00;0.33;;;19.20;99.90;;;;;;4984151;28;20229;-84
2022/06/14 07:12:42;;;;;;;0.43;0.43;;;19.50;99.90;;;;;;4986071;28;21191;-84
2022/06/14 07:15:34;;;;;;;0.30;0.30;;;19.90;99.90;;;;;;4968310;28;20244;-84
2022/06/14 07:18:21;;;;;;;0.20;0.20;;;20.20;99.90;;;;;;4969098;28;20224;-83
2022/06/14 07:21:12;;;;;;;0.10;0.10;;;20.10;99.90;;;;;;4968661;28;20190;-84
2022/06/14 07:23:57;;;;;;;0.40;0.30;;;20.30;99.90;;;;;;4968523;28;20184;-84
2022/06/14 07:26:32;;;;;;;0.20;0.20;;;20.50;99.90;;;;;;4990005;28;20195;-83
2022/06/14 07:29:20;;;;;;;0.60;0.53;;;20.40;99.90;;;;;;4973531;28;20178;-84
2022/06/14 07:32:07;;;;;;;0.30;0.20;;;20.60;99.90;;;;;;4990213;28;20207;-84
2022/06/14 07:34:34;;;;;;;0.30;0.30;;;20.10;99.90;;;;;;4990888;28;20202;-83
2022/06/14 07:37:35;;;;;;;0.10;0.10;;;20.30;99.90;;;;;;4972669;28;20293;-83
2022/06/14 07:40:14;;;;;;;0.20;0.20;;;20.20;99.90;;;;;;4973195;28;20186;-85
2022/06/14 07:42:57;;;;;;;0.20;0.20;;;20.40;99.90;;;;;;4990952;28;20254;-83
2022/06/14 07:45:31;;;;;;;0.87;0.60;;;20.60;99.90;;;;;;4972608;28;20206;-83
2022/06/14 07:48:45;;;;;;;0.43;0.43;;;20.80;99.90;;;;;;4973657;28;21453;-84
2022/06/14 07:51:21;;;;;;;0.80;0.37;;;21.10;99.90;;;;;;4989493;28;20299;-84
2022/06/14 07:54:16;;;;;;;0.40;0.40;;;21.00;99.90;;;;;;4971852;28;20188;-84
2022/06/14 07:56:52;;;;;;;0.60;0.37;;;21.10;99.90;;;;;;4991233;28;20218;-83
2022/06/14 07:59:23;;;;;;;0.30;0.30;;;20.40;99.90;;;;;;4990843;28;20198;-84
2022/06/14 08:02:02;;;;;;;1.13;0.33;;;20.90;99.90;;;;;;4991156;28;20547;-84
2022/06/14 08:04:36;;;;;;;0.80;0.33;;;21.30;99.90;;;;;;4972352;28;20210;-84
2022/06/14 08:07:06;;;;;;;0.20;0.20;;;21.20;99.90;;;;;;4989848;28;20198;-83
2022/06/14 08:10:06;;;;;;;0.13;0.13;;;21.40;99.90;;;;;;4990684;28;20180;-83
2022/06/14 08:12:44;;;;;;;0.30;0.30;;;21.60;99.90;;;;;;4990341;28;20180;-83
2022/06/14 08:15:24;;;;;;;0.93;0.27;;;21.90;99.90;;;;;;4972544;28;20239;-84
2022/06/14 08:17:54;;;;;;;0.20;0.20;;;21.90;99.90;;;;;;4989109;28;20214;-83
2022/06/14 08:20:26;;;;;;;0.10;0.10;;;22.30;99.90;;;;;;4988249;28;20271;-83
2022/06/14 08:22:57;;;;;;;0.23;0.23;;;22.60;99.90;;;;;;4988524;28;20171;-84
2022/06/14 08:25:28;;;;;;;0.20;0.20;;;22.30;99.90;;;;;;4970181;28;20209;-83
2022/06/14 08:28:07;;;;;;;0.10;0.10;;;22.60;99.90;;;;;;4970455;28;20184;-84
2022/06/14 08:30:41;;;;;;;0.30;0.30;;;22.90;99.90;;;;;;4986308;28;20188;-85
2022/06/14 08:33:27;;;;;;;0.60;0.53;;;22.90;99.90;;;;;;4985870;28;20184;-84
2022/06/14 08:35:59;;;;;;;0.50;0.50;;;22.20;99.90;;;;;;4987989;28;20219;-83
2022/06/14 08:38:33;;;;;;;0.27;0.27;;;22.20;99.90;;;;;;4988589;28;20223;-83
2022/06/14 08:41:31;;;;;;;0.37;0.37;;;22.60;99.90;;;;;;4988736;28;20179;-83
2022/06/14 08:44:22;;;;;;;0.20;0.20;;;22.90;99.90;;;;;;4987323;28;20913;-83
2022/06/14 08:47:02;;;;;;;0.70;0.70;;;23.10;99.90;;;;;;4988347;28;20204;-84
2022/06/14 08:49:51;;;;;;;0.73;0.73;;;22.70;99.90;;;;;;4971144;28;20234;-83
2022/06/14 08:52:55;;;;;;;1.83;0.53;;;22.30;99.90;;;;;;4969718;28;20180;-83
2022/06/14 08:55:41;;;;;;;0.40;0.40;;;21.40;99.90;;;;;;4985237;28;21097;-83
2022/06/14 08:58:36;;;;;;;0.30;0.30;;;22.20;99.90;;;;;;4986891;28;20215;-82
2022/06/14 09:01:26;;;;;;;0.43;0.43;;;22.80;99.90;;;;;;4987752;28;20270;-84
2022/06/14 09:04:29;;;;;;;0.60;0.60;;;22.90;99.90;;;;;;4988116;28;20238;-83
2022/06/14 09:07:32;;;;;;;0.17;0.17;;;23.10;99.90;;;;;;4982890;28;20870;-83
2022/06/14 09:10:13;;;;;;;4.43;0.60;;;22.70;99.90;;;;;;4968895;28;20230;-84
2022/06/14 09:13:03;;;;;;;0.40;0.40;;;22.90;99.90;;;;;;4987138;28;20184;-83
2022/06/14 09:16:10;;;;;;;1.13;0.33;;;23.10;99.90;;;;;;4990095;28;20207;-83
2022/06/14 09:19:00;;;;;;;0.10;0.10;;;23.30;99.90;;;;;;4990038;28;20262;-83
2022/06/14 09:22:04;;;;;;;0.30;0.30;;;23.40;99.90;;;;;;4988012;28;20858;-82
2022/06/14 09:24:52;;;;;;;0.57;0.53;;;23.10;99.90;;;;;;4987451;28;20188;-82
2022/06/14 09:27:30;;;;;;;0.33;0.30;;;23.20;99.90;;;;;;4969789;28;20213;-82
2022/06/14 09:30:23;;;;;;;0.30;0.30;;;23.20;99.90;;;;;;4969959;28;20192;-84
2022/06/14 09:33:10;;;;;;;0.30;0.30;;;23.10;99.90;;;;;;4987321;28;20219;-83
2022/06/14 09:36:01;;;;;;;0.70;0.60;;;23.20;99.90;;;;;;4969563;28;20211;-83
2022/06/14 09:39:01;;;;;;;0.20;0.20;;;22.60;99.90;;;;;;4989301;28;20207;-83
2022/06/14 09:41:52;;;;;;;0.20;0.20;;;22.60;99.90;;;;;;4987832;28;20242;-84
2022/06/14 09:44:20;;;;;;;0.37;0.37;;;22.90;99.90;;;;;;4989219;28;20192;-84
2022/06/14 09:47:08;;;;;;;0.43;0.43;;;23.40;99.90;;;;;;4987580;28;20326;-85
2022/06/14 09:50:15;;;;;;;0.20;0.20;;;23.60;99.90;;;;;;4984823;28;20219;-84
2022/06/14 09:53:09;;;;;;;0.30;0.30;;;23.70;99.90;;;;;;4968428;28;20679;-84
2022/06/14 09:56:10;;;;;;;0.27;0.27;;;23.50;99.90;;;;;;4986989;28;20227;-83
2022/06/14 09:59:02;;;;;;;0.30;0.30;;;23.70;99.90;;;;;;4969791;28;20192;-84
2022/06/14 10:01:45;;;;;;;0.37;0.37;;;24.20;99.90;;;;;;4969116;28;20278;-84
2022/06/14 10:04:27;;;;;;;0.20;0.20;;;24.60;99.90;;;;;;4968823;28;20210;-84
2022/06/14 10:07:20;;;;;;;0.20;0.20;;;24.70;99.90;;;;;;4969557;28;20227;-84
2022/06/14 10:10:22;;;;;;;0.33;0.33;;;24.70;99.90;;;;;;4983963;28;20671;-83
2022/06/14 10:13:35;;;;;;;0.60;0.60;;;24.30;99.90;;;;;;4967392;28;20190;-83
2022/06/14 10:16:09;;;;;;;0.83;0.37;;;24.20;99.90;;;;;;4898789;28;20234;-83
2022/06/14 10:19:09;;;;;;;0.83;0.60;;;24.40;99.90;;;;;;4981773;28;20272;-83
2022/06/14 10:21:55;;;;;;;0.37;0.37;;;24.40;99.90;;;;;;4985809;28;20179;-84
2022/06/14 10:25:00;;;;;;;0.50;0.50;;;24.50;99.90;;;;;;4967443;28;20183;-83
2022/06/14 10:30:32;;;;;;;0.30;0.30;;;23.00;99.90;;;;;;5061451;28;20533;-82
2022/06/14 10:33:23;;;;;;;0.20;0.20;;;23.20;99.90;;;;;;5060541;28;20193;-83
2022/06/14 10:36:16;;;;;;;0.37;0.37;;;23.70;99.90;;;;;;5059426;28;20573;-82
2022/06/14 10:39:03;;;;;;;0.30;0.30;;;24.00;99.90;;;;;;5058551;28;20254;-82
2022/06/14 10:41:42;;;;;;;0.10;0.10;;;23.90;99.90;;;;;;5056722;28;20192;-84
2022/06/14 10:44:29;;;;;;;0.30;0.30;;;24.60;99.90;;;;;;5059317;28;20185;-82
2022/06/14 10:47:10;;;;;;;0.20;0.20;;;24.90;99.90;;;;;;5060253;28;20219;-83
2022/06/14 10:50:00;;;;;;;0.67;0.47;;;23.90;99.90;;;;;;5077072;28;20209;-83
2022/06/14 10:52:39;;;;;;;1.53;0.70;;;23.90;99.90;;;;;;5062007;28;20184;-83
2022/06/14 10:55:07;;;;;;;0.30;0.30;;;24.40;99.90;;;;;;5061216;28;20213;-81
2022/06/14 10:58:11;;;;;;;0.47;0.47;;;24.40;99.90;;;;;;5062611;28;20211;-82
2022/06/14 11:00:48;;;;;;;1.07;0.50;;;24.60;99.90;;;;;;5010581;28;20283;-82
2022/06/14 11:03:32;;;;;;;0.20;0.20;;;23.40;99.90;;;;;;5060336;28;20279;-82
2022/06/14 11:06:35;;;;;;;0.67;0.23;;;24.20;99.90;;;;;;5060006;28;20219;-82
2022/06/14 11:09:15;;;;;;;0.30;0.30;;;24.70;99.90;;;;;;5055742;28;20274;-84
2022/06/14 11:11:50;;;;;;;0.73;0.40;;;25.10;99.90;;;;;;5058588;28;20188;-82
2022/06/14 11:14:47;;;;;;;0.40;0.40;;;25.10;99.90;;;;;;5057882;28;20188;-82
2022/06/14 11:17:50;;;;;;;0.83;0.23;;;24.30;99.90;;;;;;5061309;28;20185;-81
2022/06/14 11:20:37;;;;;;;0.20;0.20;;;24.70;99.90;;;;;;5061184;28;20188;-83
2022/06/14 11:23:43;;;;;;;0.30;0.30;;;25.30;99.90;;;;;;5059591;28;20231;-83
2022/06/14 11:26:14;;;;;;;0.30;0.30;;;25.70;99.90;;;;;;5061576;28;20239;-82
2022/06/14 11:29:09;;;;;;;0.87;0.43;;;24.50;99.90;;;;;;5061259;28;20239;-82
2022/06/14 11:31:52;;;;;;;0.23;0.23;;;24.20;99.90;;;;;;5062474;28;20188;-81
2022/06/14 11:34:33;;;;;;;0.40;0.40;;;24.80;99.90;;;;;;5059007;28;20192;-81
2022/06/14 11:37:23;;;;;;;0.97;0.33;;;25.40;99.90;;;;;;5061624;28;20812;-82
2022/06/14 11:40:04;;;;;;;0.10;0.10;;;25.90;99.90;;;;;;5055990;28;20196;-82
2022/06/14 11:42:32;;;;;;;0.27;0.27;;;25.70;99.90;;;;;;5047303;28;20568;-81
2022/06/14 11:45:28;;;;;;;0.57;0.47;;;25.80;99.90;;;;;;5045557;28;20240;-82
2022/06/14 11:48:09;;;;;;;0.43;0.43;;;26.10;99.90;;;;;;5048124;28;20185;-81
2022/06/14 11:50:56;;;;;;;0.37;0.37;;;25.20;99.90;;;;;;5045025;28;20186;-82
2022/06/14 11:53:39;;;;;;;2.63;0.37;;;25.90;99.90;;;;;;5046845;28;20186;-83
2022/06/14 11:56:31;;;;;;;0.30;0.30;;;26.00;99.90;;;;;;5047432;28;20206;-82
2022/06/14 11:59:54;;;;;;;0.70;0.67;;;26.20;99.90;;;;;;5048065;28;20190;-83
2022/06/14 12:02:55;;;;;;;0.20;0.20;;;26.30;99.90;;;;;;5023148;28;20200;-82
2022/06/14 12:05:40;;;;;;;0.30;0.30;;;26.40;99.90;;;;;;5044914;28;20256;-81
2022/06/14 12:08:24;;;;;;;0.57;0.57;;;26.00;99.90;;;;;;5044951;28;20228;-83
2022/06/14 12:11:14;;;;;;;0.40;0.40;;;25.50;99.90;;;;;;5039540;28;20181;-81
2022/06/14 12:14:02;;;;;;;0.97;0.20;;;25.70;99.90;;;;;;5043885;28;20809;-82
2022/06/14 12:16:38;;;;;;;0.30;0.30;;;25.90;99.90;;;;;;5049107;28;20296;-82
2022/06/14 12:19:13;;;;;;;0.27;0.27;;;26.40;99.90;;;;;;5045300;28;20212;-81
2022/06/14 12:21:57;;;;;;;0.20;0.20;;;26.70;99.90;;;;;;5043425;28;20280;-80
2022/06/14 12:26:34;;;;;;;0.17;0.17;;;26.90;99.90;;;;;;5033571;28;20178;-81
2022/06/14 12:27:18;;;;;;;0.37;0.30;;;26.70;99.90;;;;;;5040813;28;20186;-80
2022/06/14 12:29:46;;;;;;;0.20;0.20;;;26.80;99.90;;;;;;5039880;28;20950;-80
2022/06/14 12:32:34;;;;;;;0.20;0.20;;;26.60;99.90;;;;;;5042016;28;20190;-79
2022/06/14 12:35:07;;;;;;;0.27;0.27;;;25.50;99.90;;;;;;5041777;28;20209;-80
2022/06/14 12:37:50;;;;;;;0.53;0.40;;;26.10;99.90;;;;;;5046925;28;20197;-81
2022/06/14 12:40:39;;;;;;;0.20;0.20;;;26.50;99.90;;;;;;5044361;28;20181;-81
2022/06/14 12:43:24;;;;;;;0.20;0.20;;;26.90;99.90;;;;;;5049082;28;20201;-84
2022/06/14 12:46:07;;;;;;;0.15;0.15;;;27.00;99.90;;;;;;5046285;28;20209;-84
2022/06/14 12:48:54;;;;;;;0.10;0.10;;;27.30;99.90;;;;;;5046562;28;20198;-84
2022/06/14 12:51:26;;;;;;;0.40;0.40;;;27.00;99.90;;;;;;5045185;28;20185;-84
2022/06/14 12:53:55;;;;;;;0.30;0.28;;;26.40;99.90;;;;;;5042614;28;20220;-82
2022/06/14 12:56:42;;;;;;;0.32;0.32;;;26.90;99.90;;;;;;5043145;28;20209;-81
2022/06/14 12:59:34;;;;;;;0.20;0.20;;;26.90;99.90;;;;;;5042300;28;20197;-82
2022/06/14 13:02:12;;;;;;;0.20;0.20;;;27.00;99.90;;;;;;5043373;28;20194;-82
2022/06/14 13:04:58;;;;;;;0.25;0.25;;;27.20;99.90;;;;;;5043202;28;20662;-83
2022/06/14 13:07:39;;;;;;;0.65;0.40;;;26.80;99.90;;;;;;5042521;28;20185;-84
2022/06/14 13:10:36;;;;;;;0.20;0.20;;;27.00;99.90;;;;;;5046895;28;20205;-85
2022/06/14 13:13:25;;;;;;;0.25;0.25;;;27.30;99.90;;;;;;5032288;28;20197;-85
2022/06/14 13:16:12;;;;;;;0.17;0.17;;;27.50;99.90;;;;;;5040820;28;20201;-85
2022/06/14 13:19:06;;;;;;;0.25;0.20;;;27.40;99.90;;;;;;5044832;28;20208;-82
2022/06/14 13:21:40;;;;;;;0.40;0.40;;;26.60;99.90;;;;;;5043677;28;20194;-83
2022/06/14 13:24:44;;;;;;;0.20;0.20;;;25.80;99.90;;;;;;5045224;28;20185;-82
2022/06/14 13:27:29;;;;;;;0.30;0.30;;;26.00;99.90;;;;;;5035444;28;20342;-83
2022/06/14 13:30:28;;;;;;;0.27;0.27;;;26.60;99.90;;;;;;5044748;28;20224;-82
2022/06/14 13:33:04;;;;;;;0.20;0.20;;;26.90;99.90;;;;;;5047062;28;20204;-82
2022/06/14 13:36:06;;;;;;;0.20;0.20;;;25.80;99.90;;;;;;5049161;28;20240;-82
2022/06/14 13:38:48;;;;;;;0.20;0.20;;;25.80;99.90;;;;;;5043843;28;20185;-83
2022/06/14 13:41:36;;;;;;;0.33;0.33;;;26.00;99.90;;;;;;5042474;28;20225;-82
2022/06/14 13:44:15;;;;;;;0.32;0.30;;;26.00;99.90;;;;;;5041139;28;20247;-82
2022/06/14 13:47:01;;;;;;;0.20;0.20;;;26.10;99.90;;;;;;5047586;28;20293;-83
2022/06/14 13:49:40;;;;;;;0.20;0.20;;;26.40;99.90;;;;;;5045782;28;20224;-83
2022/06/14 13:52:23;;;;;;;0.10;0.10;;;26.80;99.90;;;;;;5043682;28;20193;-82
2022/06/14 13:55:16;;;;;;;0.20;0.17;;;27.20;99.90;;;;;;5044755;28;20186;-81
2022/06/14 13:58:05;;;;;;;0.15;0.15;;;27.40;99.90;;;;;;5043964;28;20546;-82
2022/06/14 14:00:51;;;;;;;0.32;0.32;;;27.20;99.90;;;;;;5046210;28;20194;-83
2022/06/14 14:03:42;;;;;;;0.22;0.22;;;27.30;99.90;;;;;;5045434;28;20189;-82
2022/06/14 14:06:36;;;;;;;0.17;0.17;;;27.40;99.90;;;;;;5044962;28;20225;-82
2022/06/14 14:09:39;;;;;;;0.20;0.20;;;27.10;99.90;;;;;;5046048;28;20331;-82